createdAt,value
2022-08-04T00:02:50.631Z,3.60
2022-08-04T00:05:42.039Z,3.70
2022-08-04T00:08:47.390Z,3.70
2022-08-04T00:11:21.912Z,3.80
2022-08-04T00:14:03.225Z,3.40
2022-08-04T00:16:43.494Z,3.50
2022-08-04T00:19:42.348Z,3.50
2022-08-04T00:22:13.764Z,3.30
2022-08-04T00:24:42.852Z,3.50
2022-08-04T00:27:13.156Z,3.90
2022-08-04T00:29:42.319Z,3.20
2022-08-04T00:32:12.953Z,3.70
2022-08-04T00:34:42.048Z,3.80
2022-08-04T00:37:11.062Z,3.80
2022-08-04T00:39:41.055Z,3.50
2022-08-04T00:42:27.975Z,3.50
2022-08-04T00:45:15.506Z,3.50
2022-08-04T00:48:08.154Z,3.50
2022-08-04T00:50:46.953Z,3.40
2022-08-04T00:53:18.546Z,3.50
2022-08-04T00:56:18.350Z,3.40
2022-08-04T00:59:12.125Z,3.50
2022-08-04T01:02:00.067Z,3.60
2022-08-04T01:05:15.959Z,3.50
2022-08-04T01:07:56.561Z,3.40
2022-08-04T01:10:52.307Z,3.60
2022-08-04T01:13:41.311Z,3.60
2022-08-04T01:16:11.740Z,3.80
2022-08-04T01:18:55.923Z,3.90
2022-08-04T01:21:30.606Z,4.10
2022-08-04T01:23:59.313Z,4.20
2022-08-04T01:27:07.006Z,3.70
2022-08-04T01:29:47.359Z,4.10
2022-08-04T01:35:46.649Z,3.90
2022-08-04T01:38:24.365Z,4.00
2022-08-04T01:40:56.462Z,3.80
2022-08-04T01:43:28.014Z,3.70
2022-08-04T01:46:02.337Z,3.70
2022-08-04T01:48:31.701Z,4.20
2022-08-04T01:51:06.249Z,4.00
2022-08-04T01:53:37.234Z,3.90
2022-08-04T01:56:08.654Z,3.60
2022-08-04T01:58:38.938Z,4.00
2022-08-04T02:01:10.534Z,3.80
2022-08-04T02:06:38.114Z,3.40
2022-08-04T02:09:53.684Z,3.60
2022-08-04T02:12:35.806Z,3.80
2022-08-04T02:15:28.763Z,4.00
2022-08-04T02:18:38.306Z,3.80
2022-08-04T02:21:07.875Z,3.80
2022-08-04T02:23:37.679Z,4.20
2022-08-04T02:26:22.288Z,4.00
2022-08-04T02:29:16.712Z,4.40
2022-08-04T02:31:45.317Z,4.50
2022-08-04T02:34:30.439Z,4.50
2022-08-04T02:37:00.890Z,4.80
2022-08-04T02:39:48.406Z,5.00
2022-08-04T02:42:20.151Z,4.90
2022-08-04T02:44:50.906Z,4.60
2022-08-04T02:47:22.669Z,4.50
2022-08-04T02:49:52.965Z,4.80
2022-08-04T02:52:24.276Z,4.90
2022-08-04T02:54:56.388Z,4.70
2022-08-04T02:57:30.257Z,4.90
2022-08-04T03:00:20.183Z,4.90
2022-08-04T03:02:48.936Z,4.40
2022-08-04T03:05:20.469Z,5.30
2022-08-04T03:10:53.022Z,4.40
2022-08-04T03:13:37.488Z,4.20
2022-08-04T03:16:21.635Z,4.70
2022-08-04T03:19:29.126Z,4.80
2022-08-04T03:22:27.100Z,4.40
2022-08-04T03:25:17.398Z,4.70
2022-08-04T03:28:17.192Z,4.20
2022-08-04T03:31:19.808Z,4.50
2022-08-04T03:34:22.581Z,4.70
2022-08-04T03:37:41.027Z,4.10
2022-08-04T03:40:43.349Z,4.70
2022-08-04T03:43:58.503Z,4.80
2022-08-04T03:46:34.552Z,4.60
2022-08-04T03:49:28.221Z,5.10
2022-08-04T03:52:40.436Z,5.20
2022-08-04T03:55:27.545Z,4.50
2022-08-04T03:58:11.492Z,4.50
2022-08-04T04:01:06.802Z,4.50
2022-08-04T04:03:42.764Z,4.80
2022-08-04T04:06:36.433Z,4.40
2022-08-04T04:09:22.118Z,4.50
2022-08-04T04:12:10.263Z,4.90
2022-08-04T04:14:51.444Z,5.70
2022-08-04T04:17:47.782Z,4.90
2022-08-04T04:20:33.363Z,5.50
2022-08-04T04:23:39.836Z,6.10
2022-08-04T04:26:20.604Z,5.50
2022-08-04T04:29:03.634Z,5.80
2022-08-04T04:31:49.521Z,5.20
2022-08-04T04:34:47.109Z,4.70
2022-08-04T04:37:48.618Z,4.50
2022-08-04T04:40:45.913Z,4.40
2022-08-04T04:43:51.106Z,4.70
2022-08-04T04:46:43.999Z,4.30
2022-08-04T04:49:29.274Z,4.40
2022-08-04T04:52:14.041Z,3.90
2022-08-04T04:55:08.076Z,4.30
2022-08-04T04:57:53.061Z,4.00
2022-08-04T05:00:26.900Z,4.10
2022-08-04T05:03:23.953Z,4.30
2022-08-04T05:06:17.725Z,4.00
2022-08-04T05:09:26.277Z,4.00
2022-08-04T05:14:31.346Z,3.90
2022-08-04T05:15:31.823Z,3.80
2022-08-04T05:18:04.541Z,3.50
2022-08-04T05:20:42.408Z,3.60
2022-08-04T05:23:18.815Z,3.60
2022-08-04T05:26:00.502Z,3.40
2022-08-04T05:28:54.141Z,3.20
2022-08-04T05:31:32.863Z,3.30
2022-08-04T05:34:08.622Z,3.00
2022-08-04T05:36:50.147Z,3.20
2022-08-04T05:39:32.316Z,3.00
2022-08-04T05:42:05.101Z,2.90
2022-08-04T05:44:37.335Z,2.80
2022-08-04T05:47:07.540Z,2.80
2022-08-04T05:49:38.919Z,2.60
2022-08-04T05:52:10.493Z,2.60
2022-08-04T05:54:40.507Z,2.60
2022-08-04T05:57:11.826Z,2.90
2022-08-04T06:02:12.433Z,2.70
2022-08-04T06:04:43.454Z,3.00
2022-08-04T06:07:13.392Z,3.20
2022-08-04T06:09:42.672Z,2.70
2022-08-04T06:12:37.075Z,3.30
2022-08-04T06:15:08.767Z,3.40
2022-08-04T06:19:57.902Z,2.40
2022-08-04T06:20:34.611Z,2.60
2022-08-04T06:23:11.134Z,2.70
2022-08-04T06:25:46.075Z,2.50
2022-08-04T06:28:16.756Z,2.30
2022-08-04T06:30:48.310Z,3.00
2022-08-04T06:33:27.187Z,2.90
2022-08-04T06:35:58.057Z,3.10
2022-08-04T06:38:29.081Z,2.60
2022-08-04T06:40:59.800Z,2.20
2022-08-04T06:43:30.124Z,3.10
2022-08-04T06:46:04.779Z,2.80
2022-08-04T06:48:33.905Z,2.50
2022-08-04T06:51:30.428Z,2.30
2022-08-04T06:53:53.143Z,2.60
2022-08-04T06:56:24.269Z,2.30
2022-08-04T07:01:27.133Z,2.50
2022-08-04T07:03:56.596Z,2.20
2022-08-04T07:06:26.205Z,2.30
2022-08-04T07:08:56.739Z,2.70
2022-08-04T07:11:26.808Z,2.60
2022-08-04T07:13:57.896Z,2.70
2022-08-04T07:19:09.779Z,2.70
2022-08-04T07:21:40.444Z,2.80
2022-08-04T07:24:33.976Z,2.40
2022-08-04T07:27:04.289Z,3.10
2022-08-04T07:29:36.729Z,3.10
2022-08-04T07:32:06.575Z,2.40
2022-08-04T07:34:37.906Z,2.60
2022-08-04T07:37:07.594Z,2.50
2022-08-04T07:39:47.876Z,2.50
2022-08-04T07:42:21.688Z,2.40
2022-08-04T07:44:50.652Z,2.90
2022-08-04T07:47:25.111Z,2.50
2022-08-04T07:49:57.995Z,2.70
2022-08-04T07:52:27.297Z,2.50
2022-08-04T07:54:56.830Z,2.50
2022-08-04T07:57:40.713Z,2.70
2022-08-04T08:00:14.590Z,2.70
2022-08-04T08:02:44.032Z,2.50
2022-08-04T08:05:15.428Z,2.60
2022-08-04T08:07:50.649Z,2.30
2022-08-04T08:10:25.284Z,2.50
2022-08-04T08:15:23.616Z,2.90
2022-08-04T08:17:59.842Z,2.40
2022-08-04T08:20:33.733Z,2.70
2022-08-04T08:23:03.737Z,2.30
2022-08-04T08:25:33.626Z,2.50
2022-08-04T08:28:04.978Z,2.40
2022-08-04T08:30:35.022Z,2.20
2022-08-04T08:33:10.263Z,2.40
2022-08-04T08:35:57.383Z,2.60
2022-08-04T08:38:39.707Z,2.50
2022-08-04T08:41:31.317Z,2.60
2022-08-04T08:44:05.647Z,2.50
2022-08-04T08:46:50.958Z,2.50
2022-08-04T08:50:00.111Z,2.30
2022-08-04T08:53:10.008Z,2.50
2022-08-04T08:55:59.889Z,2.60
2022-08-04T08:59:04.013Z,2.40
2022-08-04T09:02:06.898Z,2.30
2022-08-04T09:04:47.854Z,2.60
2022-08-04T09:07:35.812Z,2.50
2022-08-04T09:10:33.102Z,2.40
2022-08-04T09:13:14.253Z,2.60
2022-08-04T09:16:06.557Z,2.60
2022-08-04T09:18:43.802Z,2.60
2022-08-04T09:21:26.392Z,2.60
2022-08-04T09:24:36.422Z,2.70
2022-08-04T09:27:17.224Z,2.90
2022-08-04T09:30:06.594Z,2.80
2022-08-04T09:33:02.527Z,2.50
2022-08-04T09:35:42.735Z,2.50
2022-08-04T09:38:41.985Z,2.40
2022-08-04T09:41:49.686Z,2.40
2022-08-04T09:44:50.409Z,2.60
2022-08-04T09:47:57.935Z,2.70
2022-08-04T09:50:39.769Z,2.30
2022-08-04T09:53:46.663Z,2.30
2022-08-04T09:56:39.420Z,2.50
2022-08-04T09:59:20.123Z,2.20
2022-08-04T10:01:58.852Z,2.40
2022-08-04T10:04:31.770Z,2.50
2022-08-04T10:07:31.346Z,2.60
2022-08-04T10:10:32.701Z,2.50
2022-08-04T10:13:20.127Z,2.40
2022-08-04T10:16:16.259Z,2.50
2022-08-04T10:19:15.666Z,2.60
2022-08-04T10:23:09.539Z,2.40
2022-08-04T10:28:31.198Z,2.60
2022-08-04T10:31:03.672Z,2.40
2022-08-04T10:33:50.261Z,2.60
2022-08-04T10:36:24.358Z,2.20
2022-08-04T10:39:04.222Z,2.70
2022-08-04T10:41:40.614Z,2.30
2022-08-04T10:44:42.056Z,2.60
2022-08-04T10:47:22.963Z,2.80
2022-08-04T10:52:27.594Z,2.50
2022-08-04T10:55:22.036Z,2.80
2022-08-04T10:57:58.653Z,3.00
2022-08-04T11:00:28.991Z,2.50
2022-08-04T11:05:50.221Z,2.50
2022-08-04T11:08:25.518Z,2.30
2022-08-04T11:11:02.992Z,2.50
2022-08-04T11:13:46.774Z,2.20
2022-08-04T11:16:25.440Z,2.20
2022-08-04T11:19:44.695Z,2.40
2022-08-04T11:22:23.822Z,2.80
2022-08-04T11:25:19.746Z,2.60
2022-08-04T11:28:00.616Z,2.80
2022-08-04T11:30:41.697Z,2.60
2022-08-04T11:33:27.897Z,2.40
2022-08-04T11:36:26.153Z,2.60
2022-08-04T11:39:29.142Z,2.90
2022-08-04T11:42:09.122Z,2.50
2022-08-04T11:45:07.363Z,2.30
2022-08-04T11:47:41.931Z,2.50
2022-08-04T11:50:20.959Z,2.30
2022-08-04T11:52:53.581Z,2.50
2022-08-04T11:55:26.172Z,2.30
2022-08-04T11:57:55.656Z,2.40
2022-08-04T12:00:28.417Z,2.50
2022-08-04T12:03:37.493Z,2.70
2022-08-04T12:06:21.382Z,2.60
2022-08-04T12:09:17.515Z,2.60
2022-08-04T12:12:01.398Z,2.40
2022-08-04T12:14:58.427Z,2.30
2022-08-04T12:17:52.982Z,2.40
2022-08-04T12:20:38.170Z,2.50
2022-08-04T12:23:18.056Z,2.40
2022-08-04T12:25:52.964Z,2.50
2022-08-04T12:28:59.694Z,2.50
2022-08-04T12:31:30.270Z,2.60
2022-08-04T12:34:10.943Z,2.70
2022-08-04T12:36:56.324Z,2.50
2022-08-04T12:39:27.862Z,2.30
2022-08-04T12:42:34.756Z,2.40
2022-08-04T12:45:11.845Z,2.50
2022-08-04T12:47:42.188Z,2.60
2022-08-04T12:50:14.800Z,2.70
2022-08-04T12:53:04.369Z,2.70
2022-08-04T12:55:35.774Z,2.40
2022-08-04T12:58:16.110Z,2.40
2022-08-04T13:00:53.626Z,2.60
2022-08-04T13:03:28.057Z,2.80
2022-08-04T13:05:57.178Z,2.70
2022-08-04T13:08:26.232Z,3.10
2022-08-04T13:10:59.158Z,2.50
2022-08-04T13:13:31.880Z,2.40
2022-08-04T13:16:07.706Z,2.50
2022-08-04T13:18:49.468Z,2.90
2022-08-04T13:22:01.723Z,3.20
2022-08-04T13:24:21.215Z,2.60
2022-08-04T13:27:21.093Z,2.70
2022-08-04T13:30:00.228Z,2.60
2022-08-04T13:32:34.591Z,2.80
2022-08-04T13:35:06.070Z,2.50
2022-08-04T13:37:39.780Z,2.80
2022-08-04T13:40:14.473Z,2.50
2022-08-04T13:42:48.420Z,2.60
2022-08-04T13:45:24.206Z,3.60
2022-08-04T13:48:15.779Z,2.80
2022-08-04T13:50:55.447Z,3.00
2022-08-04T13:53:27.887Z,3.10
2022-08-04T13:56:01.837Z,2.60
2022-08-04T13:58:40.571Z,3.00
2022-08-04T14:01:20.964Z,2.90
2022-08-04T14:04:16.248Z,2.50
2022-08-04T14:09:35.118Z,2.40
2022-08-04T14:12:38.864Z,2.50
2022-08-04T14:14:58.088Z,2.60
2022-08-04T14:17:30.433Z,2.70
2022-08-04T14:20:02.351Z,2.80
2022-08-04T14:22:36.952Z,2.70
2022-08-04T14:25:15.086Z,2.60
2022-08-04T14:27:55.209Z,4.30
2022-08-04T14:30:33.807Z,2.70
2022-08-04T14:34:04.560Z,2.80
2022-08-04T14:36:01.761Z,2.60
2022-08-04T14:38:50.478Z,2.60
2022-08-04T14:41:27.602Z,2.60
2022-08-04T14:43:58.868Z,2.70
2022-08-04T14:46:36.033Z,2.70
2022-08-04T14:49:10.713Z,3.20
2022-08-04T14:51:42.355Z,2.60
2022-08-04T14:54:18.593Z,2.80
2022-08-04T14:56:58.345Z,3.20
2022-08-04T14:59:27.754Z,2.80
2022-08-04T15:02:00.539Z,2.60
2022-08-04T15:04:32.045Z,2.80
2022-08-04T15:07:04.475Z,2.70
2022-08-04T15:09:34.838Z,2.50
2022-08-04T15:12:04.861Z,2.60
2022-08-04T15:14:38.010Z,2.80
2022-08-04T15:17:12.469Z,2.80
2022-08-04T15:19:57.162Z,2.50
2022-08-04T15:22:26.262Z,2.60
2022-08-04T15:24:56.054Z,2.90
2022-08-04T15:27:29.102Z,2.60
2022-08-04T15:30:02.649Z,2.90
2022-08-04T15:32:34.703Z,2.60
2022-08-04T15:35:08.556Z,3.20
2022-08-04T15:37:47.027Z,6.30
2022-08-04T15:40:27.111Z,2.70
2022-08-04T15:43:08.854Z,2.60
2022-08-04T15:46:41.999Z,2.80
2022-08-04T15:48:44.446Z,3.40
2022-08-04T15:51:14.776Z,2.70
2022-08-04T15:54:02.769Z,3.40
2022-08-04T15:56:33.039Z,2.60
2022-08-04T15:59:01.623Z,3.40
2022-08-04T16:01:30.171Z,2.90
2022-08-04T16:04:01.659Z,3.30
2022-08-04T16:06:30.698Z,2.90
2022-08-04T16:09:02.068Z,2.90
2022-08-04T16:11:33.078Z,2.90
2022-08-04T16:14:02.145Z,3.30
2022-08-04T16:16:45.465Z,3.60
2022-08-04T16:19:35.432Z,3.70
2022-08-04T16:22:05.184Z,3.90
2022-08-04T16:24:41.723Z,3.30
2022-08-04T16:27:13.328Z,3.20
2022-08-04T16:29:47.382Z,3.30
2022-08-04T16:32:22.435Z,3.30
2022-08-04T16:35:05.642Z,3.60
2022-08-04T16:37:42.772Z,3.60
2022-08-04T16:40:36.435Z,3.30
2022-08-04T16:43:14.874Z,3.50
2022-08-04T16:45:46.718Z,3.20
2022-08-04T16:48:17.524Z,2.60
2022-08-04T16:50:57.692Z,2.70
2022-08-04T16:53:53.392Z,2.70
2022-08-04T16:56:35.550Z,2.50
2022-08-04T16:59:13.736Z,2.60
2022-08-04T17:01:48.062Z,2.90
2022-08-04T17:04:17.016Z,2.70
2022-08-04T17:06:49.744Z,2.40
2022-08-04T17:09:22.402Z,3.00
2022-08-04T17:11:53.866Z,2.70
2022-08-04T17:14:24.671Z,2.70
2022-08-04T17:19:25.774Z,2.40
2022-08-04T17:22:06.076Z,2.50
2022-08-04T17:24:38.379Z,2.90
2022-08-04T17:28:09.125Z,2.60
2022-08-04T17:29:56.431Z,3.30
2022-08-04T17:32:26.005Z,2.80
2022-08-04T17:35:01.575Z,3.50
2022-08-04T17:37:39.801Z,3.20
2022-08-04T17:40:17.882Z,3.20
2022-08-04T17:42:47.966Z,3.80
2022-08-04T17:48:24.405Z,3.20
2022-08-04T17:50:53.863Z,3.50
2022-08-04T17:54:01.381Z,3.50
2022-08-04T17:56:51.463Z,3.30
2022-08-04T17:59:52.146Z,3.10
2022-08-04T18:02:12.889Z,2.90
2022-08-04T18:05:05.916Z,2.90
2022-08-04T18:08:38.343Z,3.20
2022-08-04T18:10:51.735Z,3.70
2022-08-04T18:13:26.667Z,4.00
2022-08-04T18:16:05.636Z,2.90
2022-08-04T18:18:35.301Z,3.20
2022-08-04T18:21:07.603Z,3.50
2022-08-04T18:23:43.425Z,3.30
2022-08-04T18:26:23.907Z,3.90
2022-08-04T18:28:52.787Z,3.40
2022-08-04T18:31:21.809Z,4.60
2022-08-04T18:33:59.054Z,4.00
2022-08-04T18:36:33.282Z,4.20
2022-08-04T18:39:12.517Z,3.20
2022-08-04T18:42:02.498Z,3.30
2022-08-04T18:44:52.385Z,3.70
2022-08-04T18:47:23.719Z,3.70
2022-08-04T18:51:01.774Z,3.30
2022-08-04T18:55:55.517Z,3.40
2022-08-04T18:58:27.216Z,3.20
2022-08-04T19:01:00.490Z,3.10
2022-08-04T19:03:31.531Z,3.20
2022-08-04T19:06:03.494Z,3.00
2022-08-04T19:08:41.934Z,3.40
2022-08-04T19:11:35.257Z,3.70
2022-08-04T19:14:05.294Z,3.70
2022-08-04T19:16:34.797Z,3.80
2022-08-04T19:19:05.961Z,3.60
2022-08-04T19:22:01.378Z,4.10
2022-08-04T19:24:31.106Z,4.20
2022-08-04T19:27:06.343Z,3.90
2022-08-04T19:29:41.227Z,4.70
2022-08-04T19:32:16.105Z,3.70
2022-08-04T19:34:47.272Z,3.70
2022-08-04T19:40:10.328Z,3.30
2022-08-04T19:42:40.426Z,3.70
2022-08-04T19:45:15.560Z,3.80
2022-08-04T19:48:16.475Z,3.80
2022-08-04T19:50:34.996Z,3.60
2022-08-04T19:55:53.463Z,3.60
2022-08-04T19:58:26.322Z,3.60
2022-08-04T20:00:55.855Z,3.80
2022-08-04T20:04:10.530Z,3.40
2022-08-04T20:06:14.741Z,3.80
2022-08-04T20:08:48.301Z,3.40
2022-08-04T20:11:18.958Z,3.60
2022-08-04T20:13:54.788Z,3.00
2022-08-04T20:16:29.839Z,2.90
2022-08-04T20:21:55.574Z,2.90
2022-08-04T20:24:37.647Z,3.00
2022-08-04T20:27:15.407Z,3.50
2022-08-04T20:29:49.843Z,3.20
2022-08-04T20:32:22.151Z,3.40
2022-08-04T20:34:53.100Z,3.30
2022-08-04T20:37:24.080Z,3.40
2022-08-04T20:39:57.868Z,3.10
2022-08-04T20:42:33.839Z,3.40
2022-08-04T20:45:03.349Z,3.60
2022-08-04T20:47:35.513Z,3.50
2022-08-04T20:50:09.606Z,3.80
2022-08-04T20:52:40.043Z,3.60
2022-08-04T20:55:09.342Z,3.50
2022-08-04T20:57:48.561Z,3.70
2022-08-04T21:00:26.441Z,4.10
2022-08-04T21:02:59.903Z,4.00
2022-08-04T21:05:31.350Z,3.80
2022-08-04T21:08:00.450Z,4.50
2022-08-04T21:10:31.226Z,4.20
2022-08-04T21:12:59.974Z,3.80
2022-08-04T21:15:59.133Z,3.70
2022-08-04T21:18:17.666Z,3.60
2022-08-04T21:20:57.885Z,4.00
2022-08-04T21:23:26.847Z,3.90
2022-08-04T21:26:05.144Z,3.50
2022-08-04T21:28:40.020Z,3.80
2022-08-04T21:31:11.350Z,3.90
2022-08-04T21:33:52.234Z,4.10
2022-08-04T21:36:21.143Z,3.80
2022-08-04T21:38:51.411Z,3.60
2022-08-04T21:41:24.781Z,4.00
2022-08-04T21:43:56.531Z,3.60
2022-08-04T21:49:17.341Z,4.00
2022-08-04T21:54:37.245Z,3.70
2022-08-04T21:57:06.358Z,3.90
2022-08-04T21:59:35.130Z,3.70
2022-08-04T22:02:14.800Z,3.60
2022-08-04T22:04:44.594Z,3.60
2022-08-04T22:07:13.070Z,4.30
2022-08-04T22:10:02.427Z,3.50
2022-08-04T22:12:33.663Z,4.20
2022-08-04T22:15:23.011Z,3.80
2022-08-04T22:17:54.270Z,3.50
2022-08-04T22:20:27.963Z,4.00
2022-08-04T22:23:03.371Z,4.10
2022-08-04T22:25:37.855Z,3.90
2022-08-04T22:30:38.842Z,3.80
2022-08-04T22:33:17.217Z,3.50
2022-08-04T22:35:49.260Z,4.30
2022-08-04T22:38:37.069Z,3.90
2022-08-04T22:41:13.219Z,4.10
2022-08-04T22:43:43.754Z,4.10
2022-08-04T22:46:24.930Z,3.90
2022-08-04T22:48:54.132Z,3.90
2022-08-04T22:51:23.849Z,3.40
2022-08-04T22:53:55.877Z,4.30
2022-08-04T22:56:38.707Z,4.10
2022-08-04T22:59:11.205Z,3.80
2022-08-04T23:02:01.306Z,3.70
2022-08-04T23:04:32.765Z,3.80
2022-08-04T23:07:05.245Z,3.80
2022-08-04T23:09:50.046Z,3.70
2022-08-04T23:12:25.899Z,3.50
2022-08-04T23:14:57.233Z,3.70
2022-08-04T23:17:28.768Z,3.50
2022-08-04T23:19:59.120Z,3.60
2022-08-04T23:22:37.438Z,3.70
2022-08-04T23:25:15.779Z,3.50
2022-08-04T23:27:51.420Z,3.70
2022-08-04T23:30:30.163Z,3.90
2022-08-04T23:32:59.498Z,3.30
2022-08-04T23:35:28.472Z,4.10
2022-08-04T23:37:59.980Z,4.00
2022-08-04T23:40:50.406Z,3.70
2022-08-04T23:43:19.722Z,3.70
2022-08-04T23:46:07.733Z,3.90
2022-08-04T23:48:38.875Z,3.80
2022-08-04T23:51:14.200Z,3.80
2022-08-04T23:54:02.099Z,3.50
2022-08-04T23:56:34.919Z,4.10
2022-08-04T23:59:04.671Z,4.20
